createdAt,value
2024-05-09T00:00:58.281Z,102514.88
2024-05-09T00:06:03.048Z,102489.63
2024-05-09T00:11:08.035Z,102509.41
2024-05-09T00:16:15.178Z,102517.13
2024-05-09T00:21:20.113Z,102472.25
2024-05-09T00:26:24.587Z,102459.28
2024-05-09T00:31:31.673Z,102477.63
2024-05-09T00:36:36.163Z,102448.50
2024-05-09T00:41:40.608Z,102504.31
2024-05-09T00:46:48.045Z,102504.19
2024-05-09T00:51:53.796Z,102507.56
2024-05-09T00:56:58.974Z,102503.41
2024-05-09T01:02:06.402Z,102516.34
2024-05-09T01:07:11.122Z,102503.69
2024-05-09T01:12:16.148Z,102505.19
2024-05-09T01:17:23.571Z,102414.69
2024-05-09T01:22:33.078Z,102497.28
2024-05-09T01:27:40.644Z,102488.19
2024-05-09T01:32:48.063Z,102496.06
2024-05-09T01:37:52.625Z,102433.50
2024-05-09T01:42:59.742Z,102494.72
2024-05-09T01:48:04.935Z,102454.16
2024-05-09T01:53:10.575Z,102483.09
2024-05-09T01:58:18.655Z,102491.13
2024-05-09T02:03:23.959Z,102474.53
2024-05-09T02:08:28.755Z,102488.63
2024-05-09T02:13:38.914Z,102487.84
2024-05-09T02:18:43.877Z,102434.97
2024-05-09T02:23:48.386Z,102449.66
2024-05-09T02:28:55.798Z,102490.09
2024-05-09T02:34:03.016Z,102466.34
2024-05-09T02:39:08.174Z,102484.06
2024-05-09T02:44:15.252Z,102484.00
2024-05-09T02:49:19.977Z,102403.59
2024-05-09T02:54:24.499Z,102484.94
2024-05-09T02:59:31.574Z,102474.06
2024-05-09T03:04:36.340Z,102476.63
2024-05-09T03:09:40.983Z,102397.56
2024-05-09T03:14:48.024Z,102472.59
2024-05-09T03:19:52.746Z,102478.69
2024-05-09T03:24:57.219Z,102482.28
2024-05-09T03:30:07.330Z,102479.03
2024-05-09T03:35:12.978Z,102481.59
2024-05-09T03:40:26.127Z,102464.09
2024-05-09T03:45:35.210Z,102470.13
2024-05-09T03:50:40.626Z,102436.41
2024-05-09T03:55:48.013Z,102483.63
2024-05-09T04:00:55.226Z,102434.44
2024-05-09T04:06:00.051Z,102424.22
2024-05-09T04:11:04.716Z,102480.81
2024-05-09T04:16:13.820Z,102481.69
2024-05-09T04:21:18.486Z,102364.13
2024-05-09T04:26:23.124Z,102411.72
2024-05-09T04:31:38.354Z,102400.22
2024-05-09T04:36:44.468Z,102448.72
2024-05-09T04:41:49.132Z,102442.50
2024-05-09T04:46:56.227Z,102483.47
2024-05-09T04:52:01.027Z,102372.84
2024-05-09T04:57:05.983Z,102475.97
2024-05-09T05:02:13.367Z,102430.09
2024-05-09T05:07:23.225Z,102466.78
2024-05-09T05:12:44.843Z,102425.78
2024-05-09T05:17:52.211Z,102498.72
2024-05-09T05:22:56.901Z,102460.69
2024-05-09T05:28:01.746Z,102428.63
2024-05-09T05:33:12.871Z,102488.25
2024-05-09T05:38:23.733Z,102469.53
2024-05-09T05:43:32.011Z,102482.53
2024-05-09T05:48:43.101Z,102494.22
2024-05-09T05:53:50.887Z,102455.66
2024-05-09T05:58:55.410Z,102501.47
2024-05-09T06:04:06.373Z,102498.25
2024-05-09T06:09:11.358Z,102494.06
2024-05-09T06:14:18.264Z,102492.28
2024-05-09T06:19:27.345Z,102494.78
2024-05-09T06:24:31.995Z,102494.09
2024-05-09T06:29:44.601Z,102473.66
2024-05-09T06:34:57.633Z,102492.56
2024-05-09T06:40:07.215Z,102497.38
2024-05-09T06:45:15.682Z,102496.19
2024-05-09T06:50:28.194Z,102420.00
2024-05-09T06:55:36.675Z,102501.50
2024-05-09T07:00:42.212Z,102454.53
2024-05-09T07:05:50.228Z,102497.94
2024-05-09T07:10:54.881Z,102476.97
2024-05-09T07:16:02.750Z,102507.44
2024-05-09T07:21:12.987Z,102513.81
2024-05-09T07:26:17.800Z,102476.31
2024-05-09T07:31:23.431Z,102512.34
2024-05-09T07:36:32.810Z,102419.28
2024-05-09T07:41:37.333Z,102510.81
2024-05-09T07:47:47.845Z,102501.63
2024-05-09T07:53:29.209Z,102464.28
2024-05-09T07:57:39.886Z,102508.16
2024-05-09T08:02:45.765Z,102492.94
2024-05-09T08:07:52.984Z,102440.03
2024-05-09T08:12:59.259Z,102509.66
2024-05-09T08:18:04.514Z,102513.41
2024-05-09T08:23:13.530Z,102453.06
2024-05-09T08:28:22.347Z,102464.00
2024-05-09T08:33:27.097Z,102508.72
2024-05-09T08:38:34.428Z,102493.91
2024-05-09T08:43:41.556Z,102505.19
2024-05-09T08:48:50.783Z,102456.13
2024-05-09T08:53:58.403Z,102481.19
2024-05-09T08:59:04.736Z,102487.94
2024-05-09T09:04:12.825Z,102497.13
2024-05-09T09:09:20.423Z,102474.41
2024-05-09T09:14:24.853Z,102491.03
2024-05-09T09:19:29.459Z,102486.44
2024-05-09T09:24:37.351Z,102458.44
2024-05-09T09:29:51.077Z,102460.66
2024-05-09T09:34:56.829Z,102490.53
2024-05-09T09:40:07.118Z,102482.34
2024-05-09T09:45:12.967Z,102474.31
2024-05-09T09:50:24.043Z,102453.97
2024-05-09T09:55:40.316Z,102469.09
2024-05-09T10:00:45.498Z,102395.91
2024-05-09T10:05:51.595Z,102468.69
2024-05-09T10:10:58.921Z,102464.31
2024-05-09T10:16:11.825Z,102461.22
2024-05-09T10:21:20.782Z,102463.47
2024-05-09T10:26:35.637Z,102428.28
2024-05-09T10:31:41.275Z,102424.78
2024-05-09T10:36:46.444Z,102425.94
2024-05-09T10:41:53.987Z,102360.25
2024-05-09T10:46:58.720Z,102434.78
2024-05-09T10:52:06.968Z,102375.66
2024-05-09T10:57:14.251Z,102400.31
2024-05-09T11:02:20.284Z,102373.06
2024-05-09T11:07:25.863Z,102416.22
2024-05-09T11:12:33.166Z,102391.66
2024-05-09T11:17:39.944Z,102360.97
2024-05-09T11:22:44.693Z,102403.50
2024-05-09T11:27:51.898Z,102399.66
2024-05-09T11:32:58.189Z,102373.09
2024-05-09T11:38:02.789Z,102345.69
2024-05-09T11:43:10.843Z,102331.19
2024-05-09T11:48:16.378Z,102376.97
2024-05-09T11:53:21.007Z,102331.50
2024-05-09T11:58:34.138Z,102313.47
2024-05-09T12:03:39.458Z,102371.09
2024-05-09T12:08:46.806Z,102313.25
2024-05-09T12:13:53.857Z,102338.97
2024-05-09T12:18:58.613Z,102312.22
2024-05-09T12:24:03.091Z,102297.22
2024-05-09T12:29:10.525Z,102338.19
2024-05-09T12:34:16.446Z,102343.59
2024-05-09T12:39:21.133Z,102322.81
2024-05-09T12:44:28.556Z,102266.19
2024-05-09T12:49:35.675Z,102303.72
2024-05-09T12:54:40.452Z,102263.06
2024-05-09T12:59:47.639Z,102315.41
2024-05-09T13:04:52.188Z,102281.66
2024-05-09T13:09:57.100Z,102307.28
2024-05-09T13:15:04.235Z,102295.69
2024-05-09T13:20:18.958Z,102296.75
2024-05-09T13:25:40.067Z,102282.13
2024-05-09T13:30:47.293Z,102302.63
2024-05-09T13:35:51.762Z,102272.16
2024-05-09T13:40:59.436Z,102285.31
2024-05-09T13:46:06.904Z,102271.50
2024-05-09T13:51:11.405Z,102251.72
2024-05-09T13:56:16.096Z,102272.78
2024-05-09T14:01:24.018Z,102199.03
2024-05-09T14:06:29.109Z,102254.44
2024-05-09T14:11:33.933Z,102263.16
2024-05-09T14:16:42.679Z,102246.53
2024-05-09T14:21:50.074Z,102238.34
2024-05-09T14:26:58.221Z,102154.81
2024-05-09T14:32:05.428Z,102232.94
2024-05-09T14:37:10.098Z,102226.91
2024-05-09T14:42:18.133Z,102205.94
2024-05-09T14:47:25.807Z,102225.78
2024-05-09T14:52:30.510Z,102164.41
2024-05-09T14:57:39.197Z,102213.09
2024-05-09T15:02:50.018Z,102161.25
2024-05-09T15:07:59.656Z,102194.75
2024-05-09T15:13:04.922Z,102205.53
2024-05-09T15:18:15.974Z,102205.22
2024-05-09T15:23:21.255Z,102200.38
2024-05-09T15:28:26.017Z,102159.19
2024-05-09T15:33:40.911Z,102146.66
2024-05-09T15:38:46.060Z,102195.13
2024-05-09T15:43:53.516Z,102157.56
2024-05-09T15:49:05.237Z,102177.91
2024-05-09T15:54:09.992Z,102177.56
2024-05-09T15:59:14.558Z,102162.88
2024-05-09T16:04:22.260Z,102136.66
2024-05-09T16:09:26.936Z,102169.78
2024-05-09T16:14:34.500Z,102041.81
2024-05-09T16:19:45.000Z,102163.00
2024-05-09T16:24:49.743Z,102161.25
2024-05-09T16:29:55.939Z,102143.81
2024-05-09T16:35:03.228Z,102093.44
2024-05-09T16:40:21.411Z,102128.50
2024-05-09T16:45:30.878Z,102096.84
2024-05-09T16:50:38.952Z,102138.16
2024-05-09T16:55:43.645Z,102067.72
2024-05-09T17:00:48.579Z,102146.81
2024-05-09T17:05:59.258Z,102128.78
2024-05-09T17:11:04.477Z,102142.47
2024-05-09T17:16:11.198Z,102135.97
2024-05-09T17:21:24.057Z,102147.97
2024-05-09T17:26:33.379Z,102096.59
2024-05-09T17:31:39.597Z,102131.28
2024-05-09T17:36:47.133Z,102068.44
2024-05-09T17:41:52.966Z,102064.81
2024-05-09T17:46:59.964Z,102126.16
2024-05-09T17:52:11.548Z,102133.34
2024-05-09T17:57:22.139Z,101701.94
2024-05-09T18:02:44.524Z,101953.94
2024-05-09T18:14:38.421Z,102134.66
2024-05-09T18:19:44.714Z,102137.81
2024-05-09T18:25:08.775Z,102067.75
2024-05-09T18:30:27.451Z,102080.44
2024-05-09T18:35:48.175Z,101954.75
2024-05-09T18:40:53.017Z,102153.47
2024-05-09T18:46:02.363Z,102144.19
2024-05-09T18:51:10.680Z,102108.22
2024-05-09T18:56:15.374Z,102148.28
2024-05-09T19:01:24.014Z,101949.06
2024-05-09T19:06:29.189Z,102117.47
2024-05-09T19:11:37.317Z,101812.81
2024-05-09T19:16:50.844Z,102040.69
2024-05-09T19:21:57.216Z,102153.69
2024-05-09T19:27:01.847Z,102153.84
2024-05-09T19:32:09.746Z,102096.94
2024-05-09T19:37:14.411Z,102167.31
2024-05-09T19:42:19.323Z,102171.25
2024-05-09T19:47:26.665Z,102177.03
2024-05-09T19:52:31.444Z,102125.69
2024-05-09T19:57:42.663Z,102089.84
2024-05-09T20:02:50.149Z,102188.91
2024-05-09T20:07:57.749Z,102185.03
2024-05-09T20:13:02.543Z,102081.31
2024-05-09T20:18:13.294Z,102172.19
2024-05-09T20:23:17.838Z,102145.03
2024-05-09T20:28:23.686Z,102163.03
2024-05-09T20:33:31.904Z,102184.09
2024-05-09T20:38:38.236Z,102115.28
2024-05-09T20:43:42.773Z,102093.13
2024-05-09T20:48:50.618Z,102170.56
2024-05-09T20:53:56.118Z,102186.22
2024-05-09T20:59:00.614Z,102177.84
2024-05-09T21:04:08.097Z,102097.78
2024-05-09T21:09:12.755Z,102183.13
2024-05-09T21:14:17.642Z,102151.09
2024-05-09T21:19:24.819Z,102171.47
2024-05-09T21:24:29.387Z,102107.56
2024-05-09T21:29:34.023Z,102173.88
2024-05-09T21:35:02.911Z,102099.50
2024-05-09T21:40:17.028Z,102175.19
2024-05-09T21:45:30.892Z,102154.47
2024-05-09T21:50:41.149Z,102128.00
2024-05-09T21:55:47.332Z,102154.56
2024-05-09T22:00:52.424Z,102158.09
2024-05-09T22:06:07.309Z,102093.03
2024-05-09T22:11:12.238Z,102160.38
2024-05-09T22:16:19.471Z,102160.91
2024-05-09T22:21:26.526Z,102160.53
2024-05-09T22:26:30.977Z,102157.31
2024-05-09T22:31:35.453Z,101998.97
2024-05-09T22:36:42.603Z,102001.38
2024-05-09T22:41:47.176Z,102116.09
2024-05-09T22:46:51.689Z,102173.88
2024-05-09T22:52:01.219Z,102111.09
2024-05-09T22:57:05.944Z,102058.69
2024-05-09T23:02:10.539Z,102023.31
2024-05-09T23:07:18.004Z,102181.97
2024-05-09T23:12:22.599Z,102127.94
2024-05-09T23:17:27.127Z,101975.22
2024-05-09T23:22:34.335Z,102180.91
2024-05-09T23:27:39.086Z,102182.31
2024-05-09T23:32:46.427Z,102177.41
2024-05-09T23:37:53.518Z,102177.00
2024-05-09T23:42:58.012Z,102176.03
2024-05-09T23:48:02.884Z,102084.47
2024-05-09T23:53:11.194Z,102160.72
2024-05-09T23:58:16.260Z,102154.72
